createdAt,value
2017-07-09T14:42:58.340Z,1.37
2017-07-09T14:45:28.226Z,1.40
2017-07-09T14:47:58.478Z,1.50
2017-07-09T14:50:28.352Z,1.10
2017-07-09T14:52:58.225Z,0.90
2017-07-09T14:55:28.474Z,1.03
2017-07-09T14:57:58.367Z,1.00
2017-07-09T15:00:28.259Z,0.83
2017-07-09T15:02:58.504Z,1.10
2017-07-09T15:05:28.368Z,1.50
2017-07-09T15:07:58.291Z,1.33
2017-07-09T15:10:28.565Z,1.20
2017-07-09T15:12:58.438Z,1.30
2017-07-09T15:15:28.278Z,0.80
2017-07-09T15:17:58.580Z,1.33
2017-07-09T15:20:28.481Z,1.17
2017-07-09T15:22:58.704Z,1.10
2017-07-09T15:25:28.579Z,0.97
2017-07-09T15:27:58.870Z,1.17
2017-07-09T15:30:28.733Z,1.20
2017-07-09T15:32:58.998Z,1.70
2017-07-09T15:35:28.866Z,1.40
2017-07-09T15:37:59.129Z,1.20
2017-07-09T15:40:28.999Z,1.20
2017-07-09T15:42:59.268Z,1.43
2017-07-09T15:45:29.118Z,1.33
2017-07-09T15:47:59.435Z,1.30
2017-07-09T15:50:29.277Z,1.10
2017-07-09T15:52:59.541Z,1.80
2017-07-09T15:55:29.417Z,1.53
2017-07-09T15:57:59.348Z,1.30
2017-07-09T16:00:29.657Z,1.30
2017-07-09T16:02:59.573Z,1.20
2017-07-09T16:05:29.817Z,0.97
2017-07-09T16:07:59.693Z,1.27
2017-07-09T16:10:29.914Z,1.83
2017-07-09T16:12:59.754Z,1.60
2017-07-09T16:15:29.981Z,1.27
2017-07-09T16:17:59.829Z,1.50
2017-07-09T16:20:30.185Z,1.60
2017-07-09T16:23:00.041Z,1.67
2017-07-09T16:25:30.270Z,1.40
2017-07-09T16:28:00.103Z,1.20
2017-07-09T16:30:30.459Z,1.50
2017-07-09T16:33:00.311Z,1.80
2017-07-09T16:35:30.506Z,1.40
2017-07-09T16:38:00.370Z,1.70
2017-07-09T16:40:30.210Z,1.30
2017-07-09T16:43:00.466Z,1.10
2017-07-09T16:45:30.279Z,1.43
2017-07-09T16:48:00.170Z,1.60
2017-07-09T16:50:30.418Z,1.70
2017-07-09T16:53:00.258Z,1.63
2017-07-09T16:55:30.558Z,1.33
2017-07-09T16:58:00.402Z,1.73
2017-07-09T17:00:30.272Z,1.33
2017-07-09T17:03:00.565Z,1.43
2017-07-09T17:05:30.431Z,1.50
2017-07-09T17:08:00.344Z,1.80
2017-07-09T17:10:30.596Z,1.50
2017-07-09T17:13:00.456Z,1.73
2017-07-09T17:15:30.355Z,1.80
2017-07-09T17:18:00.705Z,1.63
2017-07-09T17:20:30.561Z,2.10
2017-07-09T17:23:01.047Z,1.97
2017-07-09T17:25:31.028Z,1.73
2017-07-09T17:28:01.320Z,2.00
2017-07-09T17:30:31.185Z,2.70
2017-07-09T17:33:01.461Z,1.67
2017-07-09T17:35:31.340Z,3.70
2017-07-09T17:38:01.278Z,2.23
2017-07-09T17:40:31.695Z,1.80
2017-07-09T17:43:01.636Z,1.80
2017-07-09T17:45:31.974Z,1.43
2017-07-09T17:48:01.885Z,2.20
2017-07-09T17:50:32.147Z,2.20
2017-07-09T17:53:02.013Z,1.77
2017-07-09T17:55:32.276Z,2.10
2017-07-09T17:58:02.140Z,2.17
2017-07-09T18:00:32.421Z,2.00
2017-07-09T18:03:02.329Z,1.90
2017-07-09T18:05:32.670Z,2.90
2017-07-09T18:08:02.572Z,1.90
2017-07-09T18:10:32.877Z,1.70
2017-07-09T18:13:02.750Z,1.93
2017-07-09T18:15:33.019Z,1.77
2017-07-09T18:18:02.877Z,1.80
2017-07-09T18:20:33.143Z,1.50
2017-07-09T18:23:03.010Z,1.83
2017-07-09T18:25:33.291Z,2.10
2017-07-09T18:28:03.176Z,3.10
2017-07-09T18:30:33.538Z,2.67
2017-07-09T18:33:03.392Z,1.50
2017-07-09T18:35:33.339Z,2.00
2017-07-09T18:38:03.517Z,2.23
2017-07-09T18:40:33.372Z,2.43
2017-07-09T18:43:03.275Z,2.73
2017-07-09T18:45:33.737Z,2.37
2017-07-09T18:48:03.667Z,2.37
2017-07-09T18:50:33.986Z,2.30
2017-07-09T18:53:03.901Z,2.27
2017-07-09T18:55:34.202Z,2.90
2017-07-09T18:58:04.138Z,2.03
2017-07-09T19:00:34.499Z,2.17
2017-07-09T19:03:04.384Z,2.00
2017-07-09T19:05:34.626Z,2.20
2017-07-09T19:08:04.549Z,2.50
2017-07-09T19:10:34.894Z,2.40
2017-07-09T19:13:04.785Z,2.17
2017-07-09T19:15:35.089Z,2.03
2017-07-09T19:18:04.980Z,2.20
2017-07-09T19:20:35.291Z,1.87
2017-07-09T19:23:05.930Z,3.20
2017-07-09T19:25:36.228Z,1.77
2017-07-09T19:28:06.206Z,2.60
2017-07-09T19:30:36.533Z,1.67
2017-07-09T19:33:06.458Z,2.23
2017-07-09T19:35:36.351Z,2.67
2017-07-09T19:38:06.656Z,2.37
2017-07-09T19:40:36.635Z,2.10
2017-07-09T19:43:06.978Z,2.43
2017-07-09T19:45:36.877Z,2.30
2017-07-09T19:48:07.108Z,2.23
2017-07-09T19:50:37.113Z,2.63
2017-07-09T19:53:07.366Z,2.83
2017-07-09T19:55:37.274Z,2.70
2017-07-09T19:58:07.576Z,2.93
2017-07-09T20:00:37.506Z,2.53
2017-07-09T20:03:07.956Z,3.20
2017-07-09T20:05:37.864Z,2.33
2017-07-09T20:08:08.137Z,1.87
2017-07-09T20:10:38.116Z,1.07
2017-07-09T20:13:08.357Z,1.70
2017-07-09T20:15:38.258Z,2.30
2017-07-09T20:18:08.727Z,2.10
2017-07-09T20:20:38.619Z,1.70
2017-07-09T20:23:08.877Z,1.47
2017-07-09T20:25:38.767Z,1.60
2017-07-09T20:28:09.085Z,2.03
2017-07-09T20:30:38.992Z,1.80
2017-07-09T20:33:09.232Z,1.93
2017-07-09T20:35:39.122Z,1.60
2017-07-09T20:38:09.451Z,1.60
2017-07-09T20:40:39.352Z,1.90
2017-07-09T20:43:09.655Z,1.80
2017-07-09T20:45:39.601Z,1.70
2017-07-09T20:48:09.886Z,2.10
2017-07-09T20:50:39.781Z,2.03
2017-07-09T20:53:09.984Z,1.40
2017-07-09T20:55:39.855Z,1.50
2017-07-09T20:58:10.085Z,1.93
2017-07-09T21:00:39.983Z,1.70
2017-07-09T21:03:10.362Z,1.60
2017-07-09T21:05:40.231Z,1.50
2017-07-09T21:08:10.488Z,1.97
2017-07-09T21:10:40.371Z,2.20
2017-07-09T21:13:10.252Z,2.40
2017-07-09T21:15:40.531Z,2.57
2017-07-09T21:18:10.510Z,1.97
2017-07-09T21:20:40.408Z,2.00
2017-07-09T21:23:10.751Z,1.97
2017-07-09T21:25:40.625Z,1.40
2017-07-09T21:28:10.874Z,2.13
2017-07-09T21:30:40.735Z,2.00
2017-07-09T21:33:10.959Z,1.90
2017-07-09T21:35:40.825Z,2.17
2017-07-09T21:38:11.106Z,2.60
2017-07-09T21:40:40.983Z,2.30
2017-07-09T21:43:11.264Z,1.90
2017-07-09T21:45:41.161Z,1.93
2017-07-09T21:48:11.379Z,1.87
2017-07-09T21:50:41.260Z,2.30
2017-07-09T21:53:12.724Z,1.80
2017-07-09T21:55:43.308Z,2.13
2017-07-09T21:58:14.553Z,2.80
2017-07-09T22:00:44.513Z,2.07
2017-07-09T22:03:15.256Z,2.47
2017-07-09T22:05:45.172Z,2.43
2017-07-09T22:08:15.480Z,1.93
2017-07-09T22:10:45.362Z,2.70
2017-07-09T22:13:15.604Z,2.00
2017-07-09T22:15:45.628Z,2.90
2017-07-09T22:18:18.126Z,2.30
2017-07-09T22:20:48.076Z,2.60
2017-07-09T22:23:18.454Z,2.53
2017-07-09T22:25:48.379Z,2.20
2017-07-09T22:28:18.648Z,2.13
2017-07-09T22:30:48.555Z,2.00
2017-07-09T22:33:18.770Z,2.30
2017-07-09T22:35:48.669Z,2.30
2017-07-09T22:38:20.932Z,2.70
2017-07-09T22:40:50.787Z,1.90
2017-07-09T22:43:21.042Z,2.30
2017-07-09T22:45:50.931Z,2.73
2017-07-09T22:48:21.146Z,1.80
2017-07-09T22:50:51.014Z,2.60
2017-07-09T22:53:21.279Z,3.03
2017-07-09T22:55:51.155Z,2.40
2017-07-09T22:58:21.391Z,2.50
2017-07-09T23:00:51.236Z,2.30
2017-07-09T23:03:21.433Z,2.07
2017-07-09T23:05:51.320Z,2.70
2017-07-09T23:08:21.263Z,2.00
2017-07-09T23:10:51.513Z,2.30
2017-07-09T23:13:21.427Z,2.30
2017-07-09T23:15:51.325Z,2.47
2017-07-09T23:18:21.688Z,1.90
2017-07-09T23:20:51.610Z,2.97
2017-07-09T23:23:21.972Z,3.37
2017-07-09T23:25:51.961Z,2.40
2017-07-09T23:28:22.279Z,1.93
2017-07-09T23:30:52.213Z,2.40
2017-07-09T23:33:22.413Z,2.70
2017-07-09T23:35:52.277Z,2.60
2017-07-09T23:38:22.193Z,2.27
2017-07-09T23:40:52.431Z,2.00
2017-07-09T23:43:22.396Z,2.20
2017-07-09T23:45:52.307Z,2.17
2017-07-09T23:48:22.558Z,2.60
2017-07-09T23:50:52.437Z,2.67
2017-07-09T23:53:22.322Z,2.10
2017-07-09T23:55:52.577Z,1.80
2017-07-09T23:58:22.534Z,2.50
